createdAt,value
2023-07-24T00:00:33.825Z,9.20
2023-07-24T00:01:33.842Z,7.70
2023-07-24T00:02:33.863Z,8.20
2023-07-24T00:03:33.829Z,7.70
2023-07-24T00:04:33.798Z,8.50
2023-07-24T00:05:33.791Z,7.40
2023-07-24T00:06:33.766Z,6.80
2023-07-24T00:07:33.812Z,8.20
2023-07-24T00:08:33.796Z,10.20
2023-07-24T00:09:33.720Z,7.80
2023-07-24T00:10:33.760Z,7.80
2023-07-24T00:11:33.711Z,8.20
2023-07-24T00:12:33.733Z,9.30
2023-07-24T00:13:33.680Z,9.00
2023-07-24T00:14:33.687Z,7.90
2023-07-24T00:15:33.714Z,8.50
2023-07-24T00:16:33.827Z,7.00
2023-07-24T00:17:33.723Z,8.20
2023-07-24T00:18:33.666Z,7.60
2023-07-24T00:19:33.625Z,7.80
2023-07-24T00:20:33.680Z,8.10
2023-07-24T00:21:33.634Z,8.20
2023-07-24T00:22:33.633Z,7.30
2023-07-24T00:23:33.663Z,7.80
2023-07-24T00:24:33.635Z,8.60
2023-07-24T00:25:33.583Z,8.40
2023-07-24T00:26:33.558Z,9.40
2023-07-24T00:27:33.554Z,7.30
2023-07-24T00:28:33.563Z,9.10
2023-07-24T00:29:33.557Z,9.10
2023-07-24T00:30:33.519Z,7.90
2023-07-24T00:31:33.484Z,7.50
2023-07-24T00:32:33.531Z,8.40
2023-07-24T00:33:33.491Z,9.20
2023-07-24T00:34:33.498Z,7.70
2023-07-24T00:35:33.446Z,8.60
2023-07-24T00:36:33.518Z,7.40
2023-07-24T00:37:33.443Z,8.30
2023-07-24T00:38:33.449Z,9.10
2023-07-24T00:39:33.415Z,8.30
2023-07-24T00:40:33.399Z,8.50
2023-07-24T00:41:33.403Z,8.90
2023-07-24T00:42:33.382Z,8.40
2023-07-24T00:43:33.377Z,8.60
2023-07-24T00:44:33.390Z,9.00
2023-07-24T00:45:33.366Z,10.20
2023-07-24T00:46:34.130Z,8.50
2023-07-24T00:47:33.376Z,8.30
2023-07-24T00:48:33.363Z,10.20
2023-07-24T00:49:33.329Z,9.00
2023-07-24T00:50:33.291Z,7.90
2023-07-24T00:51:33.291Z,10.70
2023-07-24T00:52:33.293Z,8.40
2023-07-24T00:53:33.267Z,8.10
2023-07-24T00:54:33.285Z,8.80
2023-07-24T00:55:33.292Z,7.90
2023-07-24T00:56:33.376Z,10.30
2023-07-24T00:57:33.230Z,10.40
2023-07-24T00:58:33.221Z,9.10
2023-07-24T00:59:33.201Z,8.60
2023-07-24T01:00:33.241Z,9.10
2023-07-24T01:01:33.216Z,9.30
2023-07-24T01:02:33.221Z,8.60
2023-07-24T01:03:33.156Z,8.00
2023-07-24T01:04:33.190Z,8.10
2023-07-24T01:05:33.158Z,10.50
2023-07-24T01:06:33.314Z,9.20
2023-07-24T01:07:33.147Z,9.40
2023-07-24T01:08:33.132Z,9.40
2023-07-24T01:09:33.103Z,8.00
2023-07-24T01:10:33.903Z,8.90
2023-07-24T01:11:33.069Z,9.20
2023-07-24T01:12:33.067Z,9.50
2023-07-24T01:13:33.079Z,8.40
2023-07-24T01:14:33.049Z,8.80
2023-07-24T01:15:33.068Z,8.50
2023-07-24T01:16:33.243Z,8.60
2023-07-24T01:17:33.029Z,8.40
2023-07-24T01:18:33.021Z,9.60
2023-07-24T01:19:33.019Z,9.00
2023-07-24T01:20:32.986Z,9.70
2023-07-24T01:21:32.979Z,8.60
2023-07-24T01:22:32.964Z,8.70
2023-07-24T01:23:32.955Z,8.50
2023-07-24T01:24:32.968Z,8.80
2023-07-24T01:25:32.977Z,9.40
2023-07-24T01:26:32.995Z,9.10
2023-07-24T01:27:32.917Z,10.10
2023-07-24T01:28:32.908Z,8.60
2023-07-24T01:29:32.880Z,8.00
2023-07-24T01:30:32.916Z,9.40
2023-07-24T01:31:32.875Z,9.80
2023-07-24T01:32:32.881Z,9.90
2023-07-24T01:33:32.901Z,8.80
2023-07-24T01:34:32.830Z,9.60
2023-07-24T01:35:32.849Z,8.50
2023-07-24T01:36:33.056Z,10.20
2023-07-24T01:37:32.809Z,9.70
2023-07-24T01:38:32.811Z,8.60
2023-07-24T01:39:32.787Z,10.00
2023-07-24T01:40:32.787Z,8.90
2023-07-24T01:41:32.828Z,8.90
2023-07-24T01:42:32.751Z,10.30
2023-07-24T01:43:32.740Z,8.10
2023-07-24T01:44:32.749Z,9.90
2023-07-24T01:45:32.746Z,9.90
2023-07-24T01:46:33.024Z,8.40
2023-07-24T01:47:32.800Z,8.40
2023-07-24T01:48:32.718Z,10.20
2023-07-24T01:49:32.679Z,9.40
2023-07-24T01:50:32.703Z,9.60
2023-07-24T01:51:32.672Z,9.60
2023-07-24T01:52:32.676Z,9.30
2023-07-24T01:53:32.638Z,10.00
2023-07-24T01:54:32.661Z,12.20
2023-07-24T01:55:32.609Z,9.90
2023-07-24T01:56:33.015Z,9.30
2023-07-24T01:57:32.594Z,10.50
2023-07-24T01:58:34.439Z,9.80
2023-07-24T01:59:33.424Z,9.20
2023-07-24T02:00:32.609Z,9.80
2023-07-24T02:01:32.581Z,11.10
2023-07-24T02:02:32.684Z,9.40
2023-07-24T02:03:32.608Z,9.40
2023-07-24T02:04:32.518Z,9.00
2023-07-24T02:05:32.534Z,9.40
2023-07-24T02:06:32.659Z,9.90
2023-07-24T02:07:32.498Z,9.90
2023-07-24T02:08:32.486Z,10.00
2023-07-24T02:09:32.485Z,9.90
2023-07-24T02:10:32.495Z,9.90
2023-07-24T02:11:32.465Z,9.00
2023-07-24T02:12:32.473Z,11.40
2023-07-24T02:13:32.431Z,10.60
2023-07-24T02:14:32.414Z,11.50
2023-07-24T02:15:32.418Z,11.80
2023-07-24T02:16:32.651Z,9.70
2023-07-24T02:17:32.410Z,12.20
2023-07-24T02:18:32.361Z,10.50
2023-07-24T02:19:32.380Z,10.80
2023-07-24T02:20:32.383Z,10.80
2023-07-24T02:21:32.348Z,11.80
2023-07-24T02:22:32.324Z,11.30
2023-07-24T02:23:32.373Z,12.90
2023-07-24T02:24:32.377Z,12.70
2023-07-24T02:25:32.301Z,12.50
2023-07-24T02:26:32.471Z,11.20
2023-07-24T02:27:32.372Z,12.00
2023-07-24T02:28:32.308Z,12.30
2023-07-24T02:29:32.259Z,11.80
2023-07-24T02:30:32.250Z,14.00
2023-07-24T02:31:32.273Z,10.80
2023-07-24T02:32:32.240Z,10.20
2023-07-24T02:33:32.238Z,10.90
2023-07-24T02:34:32.207Z,12.20
2023-07-24T02:35:32.198Z,14.00
2023-07-24T02:36:32.301Z,11.60
2023-07-24T02:37:32.166Z,12.20
2023-07-24T02:38:32.163Z,12.20
2023-07-24T02:39:32.179Z,12.40
2023-07-24T02:40:32.130Z,11.90
2023-07-24T02:41:32.150Z,10.40
2023-07-24T02:42:32.117Z,12.70
2023-07-24T02:43:32.127Z,12.30
2023-07-24T02:44:32.087Z,10.20
2023-07-24T02:45:32.156Z,10.80
2023-07-24T02:46:32.532Z,9.40
2023-07-24T02:47:32.979Z,10.20
2023-07-24T02:48:32.068Z,11.10
2023-07-24T02:49:32.072Z,11.00
2023-07-24T02:50:32.057Z,11.20
2023-07-24T02:51:32.030Z,9.40
2023-07-24T02:52:32.007Z,10.20
2023-07-24T02:53:32.015Z,11.90
2023-07-24T02:54:31.997Z,11.70
2023-07-24T02:55:32.048Z,11.70
2023-07-24T02:56:32.181Z,9.30
2023-07-24T02:57:31.985Z,11.30
2023-07-24T02:58:31.958Z,10.50
2023-07-24T02:59:31.946Z,10.30
2023-07-24T03:00:31.932Z,11.90
2023-07-24T03:01:31.965Z,12.10
2023-07-24T03:02:32.041Z,10.90
2023-07-24T03:03:32.005Z,10.60
2023-07-24T03:04:31.887Z,10.70
2023-07-24T03:05:38.429Z,11.70
2023-07-24T03:06:32.177Z,12.10
2023-07-24T03:07:31.856Z,11.40
2023-07-24T03:08:31.852Z,10.80
2023-07-24T03:09:31.884Z,10.30
2023-07-24T03:10:31.861Z,11.00
2023-07-24T03:11:31.803Z,11.60
2023-07-24T03:12:31.836Z,11.00
2023-07-24T03:13:31.834Z,12.50
2023-07-24T03:14:31.804Z,10.30
2023-07-24T03:15:31.875Z,11.60
2023-07-24T03:16:32.055Z,13.80
2023-07-24T03:17:31.794Z,11.00
2023-07-24T03:18:31.760Z,10.70
2023-07-24T03:19:31.717Z,11.20
2023-07-24T03:20:31.737Z,14.20
2023-07-24T03:21:31.739Z,11.60
2023-07-24T03:22:31.698Z,11.20
2023-07-24T03:23:31.716Z,12.20
2023-07-24T03:24:31.636Z,13.50
2023-07-24T03:25:31.657Z,11.50
2023-07-24T03:26:32.007Z,12.80
2023-07-24T03:27:31.597Z,11.90
2023-07-24T03:28:31.593Z,11.30
2023-07-24T03:29:31.568Z,14.70
2023-07-24T03:30:38.462Z,12.60
2023-07-24T03:31:31.631Z,12.70
2023-07-24T03:32:31.548Z,13.70
2023-07-24T03:33:31.517Z,12.80
2023-07-24T03:34:31.505Z,10.90
2023-07-24T03:35:31.496Z,12.50
2023-07-24T03:36:31.777Z,10.40
2023-07-24T03:37:31.568Z,9.90
2023-07-24T03:38:31.536Z,12.90
2023-07-24T03:39:31.473Z,13.70
2023-07-24T03:40:31.457Z,12.60
2023-07-24T03:41:31.466Z,10.20
2023-07-24T03:42:31.485Z,13.20
2023-07-24T03:43:31.447Z,12.40
2023-07-24T03:44:31.415Z,13.90
2023-07-24T03:45:31.409Z,13.30
2023-07-24T03:46:31.680Z,12.30
2023-07-24T03:47:31.400Z,10.60
2023-07-24T03:48:31.388Z,13.40
2023-07-24T03:49:31.371Z,12.00
2023-07-24T03:50:31.358Z,11.40
2023-07-24T03:51:31.357Z,10.70
2023-07-24T03:52:31.327Z,12.80
2023-07-24T03:53:32.929Z,14.00
2023-07-24T03:54:31.299Z,11.50
2023-07-24T03:55:31.421Z,12.80
2023-07-24T03:56:31.552Z,13.60
2023-07-24T03:57:31.271Z,11.20
2023-07-24T03:58:31.273Z,14.20
2023-07-24T03:59:31.281Z,11.20
2023-07-24T04:00:31.246Z,10.80
2023-07-24T04:01:31.230Z,11.40
2023-07-24T04:02:31.237Z,12.70
2023-07-24T04:03:31.238Z,12.80
2023-07-24T04:04:31.242Z,13.00
2023-07-24T04:05:31.190Z,13.70
2023-07-24T04:06:31.540Z,11.90
2023-07-24T04:07:31.159Z,10.60
2023-07-24T04:08:31.182Z,12.80
2023-07-24T04:09:31.156Z,12.40
2023-07-24T04:10:31.145Z,11.10
2023-07-24T04:11:31.127Z,11.60
2023-07-24T04:12:31.150Z,11.70
2023-07-24T04:13:31.100Z,11.50
2023-07-24T04:14:31.099Z,11.40
2023-07-24T04:15:31.117Z,14.50
2023-07-24T04:16:31.105Z,12.40
2023-07-24T04:17:31.108Z,12.00
2023-07-24T04:18:31.059Z,12.40
2023-07-24T04:19:31.042Z,12.60
2023-07-24T04:20:31.053Z,11.50
2023-07-24T04:21:31.023Z,12.20
2023-07-24T04:22:31.031Z,12.10
2023-07-24T04:23:31.014Z,13.50
2023-07-24T04:24:31.019Z,12.90
2023-07-24T04:25:31.036Z,13.90
2023-07-24T04:26:31.275Z,12.80
2023-07-24T04:27:30.952Z,12.10
2023-07-24T04:28:30.979Z,12.10
2023-07-24T04:29:30.960Z,10.70
2023-07-24T04:30:31.119Z,11.40
2023-07-24T04:31:30.934Z,12.10
2023-07-24T04:32:30.956Z,12.50
2023-07-24T04:33:31.154Z,11.30
2023-07-24T04:34:30.916Z,12.00
2023-07-24T04:35:30.870Z,12.60
2023-07-24T04:36:31.390Z,12.00
2023-07-24T04:37:30.859Z,11.50
2023-07-24T04:38:30.839Z,11.70
2023-07-24T04:39:30.873Z,12.10
2023-07-24T04:40:30.862Z,14.50
2023-07-24T04:41:30.813Z,12.10
2023-07-24T04:42:30.802Z,13.00
2023-07-24T04:43:30.796Z,12.50
2023-07-24T04:44:30.794Z,10.40
2023-07-24T04:45:30.782Z,11.10
2023-07-24T04:46:31.276Z,12.40
2023-07-24T04:47:30.768Z,11.40
2023-07-24T04:48:30.744Z,11.00
2023-07-24T04:49:30.731Z,13.00
2023-07-24T04:50:30.730Z,10.60
2023-07-24T04:51:30.773Z,14.20
2023-07-24T04:52:30.726Z,11.60
2023-07-24T04:53:30.699Z,12.80
2023-07-24T04:54:30.658Z,10.00
2023-07-24T04:55:30.655Z,14.30
2023-07-24T04:56:31.024Z,12.70
2023-07-24T04:57:30.674Z,12.10
2023-07-24T04:58:30.668Z,10.40
2023-07-24T04:59:30.622Z,12.50
2023-07-24T05:00:30.635Z,10.60
2023-07-24T05:01:30.686Z,10.40
2023-07-24T05:02:30.709Z,12.60
2023-07-24T05:03:30.582Z,12.80
2023-07-24T05:04:30.589Z,11.40
2023-07-24T05:05:31.473Z,10.80
2023-07-24T05:06:30.961Z,11.30
2023-07-24T05:07:30.580Z,11.90
2023-07-24T05:08:30.546Z,12.10
2023-07-24T05:09:30.558Z,10.20
2023-07-24T05:10:30.629Z,11.60
2023-07-24T05:11:30.583Z,11.40
2023-07-24T05:12:30.554Z,12.20
2023-07-24T05:13:30.632Z,10.10
2023-07-24T05:14:30.485Z,11.50
2023-07-24T05:15:30.547Z,11.90
2023-07-24T05:16:30.712Z,11.20
2023-07-24T05:17:30.591Z,11.60
2023-07-24T05:18:30.424Z,13.20
2023-07-24T05:19:30.428Z,12.80
2023-07-24T05:20:30.389Z,12.80
2023-07-24T05:21:30.416Z,10.90
2023-07-24T05:22:30.376Z,12.40
2023-07-24T05:23:30.367Z,12.90
2023-07-24T05:24:30.456Z,10.40
2023-07-24T05:25:30.333Z,10.90
2023-07-24T05:26:30.543Z,13.20
2023-07-24T05:27:30.319Z,12.20
2023-07-24T05:28:30.336Z,13.40
2023-07-24T05:29:30.317Z,11.90
2023-07-24T05:30:30.290Z,11.90
2023-07-24T05:31:30.373Z,11.80
2023-07-24T05:32:30.302Z,12.20
2023-07-24T05:33:30.264Z,9.80
2023-07-24T05:34:30.264Z,11.00
2023-07-24T05:35:30.236Z,11.10
2023-07-24T05:36:30.398Z,11.00
2023-07-24T05:37:30.254Z,10.90
2023-07-24T05:38:30.255Z,13.20
2023-07-24T05:39:30.212Z,11.50
2023-07-24T05:40:30.173Z,13.10
2023-07-24T05:41:30.172Z,12.20
2023-07-24T05:42:30.157Z,10.00
2023-07-24T05:43:30.186Z,10.60
2023-07-24T05:44:30.144Z,10.50
2023-07-24T05:48:22.922Z,11.20
2023-07-24T05:48:51.355Z,9.70
2023-07-24T05:49:51.353Z,10.50
2023-07-24T05:50:51.356Z,11.40
2023-07-24T05:51:51.359Z,10.30
2023-07-24T05:52:51.356Z,9.60
2023-07-24T05:58:36.489Z,10.70
2023-07-24T05:59:37.486Z,8.80
2023-07-24T06:00:37.458Z,11.00
2023-07-24T06:01:37.479Z,9.10
2023-07-24T06:02:37.440Z,9.70
2023-07-24T06:03:37.461Z,9.60
2023-07-24T06:04:37.502Z,9.40
2023-07-24T06:05:37.445Z,11.60
2023-07-24T06:06:37.411Z,8.60
2023-07-24T06:07:37.387Z,10.60
2023-07-24T06:08:37.356Z,8.60
2023-07-24T06:09:37.358Z,9.30
2023-07-24T06:10:37.381Z,8.80
2023-07-24T06:11:37.334Z,9.00
2023-07-24T06:12:37.357Z,9.70
2023-07-24T06:13:37.323Z,8.30
2023-07-24T06:14:37.309Z,9.60
2023-07-24T06:15:37.288Z,9.40
2023-07-24T06:16:37.325Z,9.40
2023-07-24T06:17:37.317Z,9.00
2023-07-24T06:18:37.269Z,8.30
2023-07-24T06:19:37.256Z,10.30
2023-07-24T06:20:37.237Z,8.50
2023-07-24T06:21:37.255Z,9.40
2023-07-24T06:22:37.229Z,9.40
2023-07-24T06:23:37.248Z,8.60
2023-07-24T06:24:37.277Z,8.50
2023-07-24T06:25:37.186Z,9.30
2023-07-24T06:26:37.215Z,7.70
2023-07-24T06:27:37.193Z,9.30
2023-07-24T06:28:37.202Z,10.30
2023-07-24T06:29:39.858Z,9.30
2023-07-24T06:30:37.129Z,8.10
2023-07-24T06:31:37.200Z,7.60
2023-07-24T06:32:37.136Z,8.40
2023-07-24T06:33:37.133Z,9.40
2023-07-24T06:34:37.134Z,8.80
2023-07-24T06:35:37.091Z,8.60
2023-07-24T06:36:37.081Z,9.40
2023-07-24T06:37:37.090Z,8.90
2023-07-24T06:38:37.064Z,9.50
2023-07-24T06:39:37.068Z,8.30
2023-07-24T06:40:37.032Z,8.80
2023-07-24T06:41:37.046Z,9.10
2023-07-24T06:42:37.028Z,7.40
2023-07-24T06:43:37.005Z,8.60
2023-07-24T06:44:37.044Z,9.40
2023-07-24T06:45:37.028Z,9.20
2023-07-24T06:46:36.989Z,9.10
2023-07-24T06:47:37.018Z,8.90
2023-07-24T06:48:36.958Z,7.50
2023-07-24T06:49:36.957Z,8.10
2023-07-24T06:50:36.930Z,8.60
2023-07-24T06:51:36.938Z,9.90
2023-07-24T06:52:36.978Z,7.60
2023-07-24T06:53:36.892Z,10.40
2023-07-24T06:54:36.878Z,9.50
2023-07-24T06:55:36.893Z,8.50
2023-07-24T06:56:36.877Z,8.60
2023-07-24T06:57:36.861Z,8.60
2023-07-24T06:58:36.842Z,9.00
2023-07-24T06:59:36.856Z,10.00
2023-07-24T07:00:36.852Z,8.80
2023-07-24T07:01:36.926Z,9.00
2023-07-24T07:02:36.821Z,7.50
2023-07-24T07:03:36.855Z,8.70
2023-07-24T07:04:36.782Z,7.50
2023-07-24T07:05:36.761Z,8.50
2023-07-24T07:06:37.598Z,7.50
2023-07-24T07:07:36.760Z,7.40
2023-07-24T07:08:36.770Z,10.20
2023-07-24T07:09:36.772Z,7.10
2023-07-24T07:10:36.732Z,8.40
2023-07-24T07:11:36.715Z,8.00
2023-07-24T07:12:36.693Z,8.10
2023-07-24T07:13:36.679Z,9.20
2023-07-24T07:14:36.683Z,8.60
2023-07-24T07:15:36.757Z,7.40
2023-07-24T07:16:36.680Z,7.80
2023-07-24T07:17:36.687Z,8.20
2023-07-24T07:18:36.662Z,8.20
2023-07-24T07:19:36.620Z,9.10
2023-07-24T07:20:36.620Z,7.60
2023-07-24T07:21:36.594Z,9.50
2023-07-24T07:22:36.625Z,7.90
2023-07-24T07:23:36.585Z,8.00
2023-07-24T07:24:36.597Z,8.70
2023-07-24T07:25:36.575Z,8.60
2023-07-24T07:26:36.561Z,7.90
2023-07-24T07:27:36.539Z,8.00
2023-07-24T07:28:36.557Z,6.50
2023-07-24T07:29:36.526Z,8.00
2023-07-24T07:30:37.658Z,8.60
2023-07-24T07:31:36.583Z,7.10
2023-07-24T07:32:36.537Z,8.50
2023-07-24T07:33:36.479Z,8.60
2023-07-24T07:34:36.469Z,8.20
2023-07-24T07:35:36.458Z,9.50
2023-07-24T07:36:36.435Z,8.60
2023-07-24T07:37:36.460Z,7.40
2023-07-24T07:38:36.458Z,8.00
2023-07-24T07:39:36.422Z,8.90
2023-07-24T07:40:36.406Z,7.90
2023-07-24T07:41:36.407Z,7.90
2023-07-24T07:42:38.190Z,8.20
2023-07-24T07:43:36.373Z,10.80
2023-07-24T07:44:36.353Z,8.30
2023-07-24T07:45:36.355Z,8.10
2023-07-24T07:46:36.363Z,8.50
2023-07-24T07:47:36.434Z,7.40
2023-07-24T07:48:36.401Z,7.90
2023-07-24T07:49:36.571Z,8.20
2023-07-24T07:50:36.294Z,7.60
2023-07-24T07:51:36.384Z,7.20
2023-07-24T07:52:36.285Z,7.20
2023-07-24T07:53:36.261Z,8.40
2023-07-24T07:54:36.276Z,8.40
2023-07-24T07:55:36.243Z,8.60
2023-07-24T07:56:36.237Z,6.90
2023-07-24T07:57:36.205Z,8.80
2023-07-24T07:58:36.209Z,8.00
2023-07-24T07:59:36.630Z,9.10
2023-07-24T08:00:36.200Z,8.10
2023-07-24T08:01:36.188Z,8.60
2023-07-24T08:02:36.179Z,7.50
2023-07-24T08:03:36.179Z,8.50
2023-07-24T08:04:36.165Z,6.90
2023-07-24T08:05:36.142Z,8.10
2023-07-24T08:06:36.160Z,7.10
2023-07-24T08:07:36.114Z,7.30
2023-07-24T08:08:36.104Z,7.50
2023-07-24T08:09:36.112Z,7.80
2023-07-24T08:10:36.087Z,9.10
2023-07-24T08:11:36.106Z,6.70
2023-07-24T08:12:36.066Z,6.80
2023-07-24T08:13:36.037Z,6.70
2023-07-24T08:14:36.085Z,8.30
2023-07-24T08:15:36.035Z,8.00
2023-07-24T08:16:36.172Z,7.90
2023-07-24T08:17:36.076Z,8.10
2023-07-24T08:18:36.045Z,7.00
2023-07-24T08:19:35.987Z,7.90
2023-07-24T08:20:35.960Z,7.20
2023-07-24T08:21:35.976Z,8.00
2023-07-24T08:22:36.026Z,8.60
2023-07-24T08:23:35.946Z,7.30
2023-07-24T08:24:35.976Z,7.30
2023-07-24T08:25:35.924Z,8.20
2023-07-24T08:26:35.975Z,8.30
2023-07-24T08:27:45.292Z,8.40
2023-07-24T08:28:35.909Z,7.90
2023-07-24T08:29:35.909Z,6.20
2023-07-24T08:30:36.025Z,8.10
2023-07-24T08:31:35.947Z,8.40
2023-07-24T08:32:35.862Z,6.60
2023-07-24T08:33:35.826Z,7.40
2023-07-24T08:34:35.856Z,7.10
2023-07-24T08:35:35.812Z,7.90
2023-07-24T08:36:35.816Z,6.90
2023-07-24T08:37:35.784Z,6.60
2023-07-24T08:38:35.770Z,8.60
2023-07-24T08:39:35.809Z,7.80
2023-07-24T08:40:35.768Z,7.80
2023-07-24T08:41:36.523Z,7.30
2023-07-24T08:42:35.730Z,8.10
2023-07-24T08:43:35.744Z,8.10
2023-07-24T08:44:35.773Z,8.00
2023-07-24T08:45:35.761Z,8.60
2023-07-24T08:46:35.708Z,7.70
2023-07-24T08:47:35.722Z,7.50
2023-07-24T08:48:35.709Z,8.70
2023-07-24T08:49:35.663Z,8.10
2023-07-24T08:50:35.651Z,8.20
2023-07-24T08:51:35.635Z,8.60
2023-07-24T08:52:36.757Z,7.20
2023-07-24T08:53:35.630Z,8.70
2023-07-24T08:54:35.645Z,7.50
2023-07-24T08:55:35.613Z,8.50
2023-07-24T08:56:35.586Z,7.40
2023-07-24T08:57:35.572Z,7.80
2023-07-24T08:58:35.585Z,7.90
2023-07-24T08:59:35.599Z,7.80
2023-07-24T09:00:35.602Z,7.60
2023-07-24T09:01:35.566Z,8.60
2023-07-24T09:02:35.608Z,9.10
2023-07-24T09:03:35.597Z,7.90
2023-07-24T09:04:35.503Z,9.80
2023-07-24T09:05:35.499Z,9.80
2023-07-24T09:06:35.490Z,9.00
2023-07-24T09:07:35.513Z,10.60
2023-07-24T09:08:35.459Z,11.00
2023-07-24T09:09:35.475Z,10.20
2023-07-24T09:10:35.511Z,8.00
2023-07-24T09:11:35.470Z,8.30
2023-07-24T09:12:35.428Z,10.30
2023-07-24T09:13:35.420Z,8.50
2023-07-24T09:14:35.425Z,9.50
2023-07-24T09:15:35.431Z,7.80
2023-07-24T09:16:36.021Z,7.90
2023-07-24T09:17:35.783Z,7.60
2023-07-24T09:18:35.366Z,8.40
2023-07-24T09:19:35.382Z,9.40
2023-07-24T09:20:35.339Z,6.80
2023-07-24T09:21:35.368Z,9.00
2023-07-24T09:22:35.355Z,8.10
2023-07-24T09:23:35.321Z,6.90
2023-07-24T09:24:35.333Z,7.10
2023-07-24T09:25:35.961Z,7.10
2023-07-24T09:26:35.278Z,7.50
2023-07-24T09:27:35.995Z,7.30
2023-07-24T09:28:35.283Z,8.60
2023-07-24T09:29:35.253Z,10.10
2023-07-24T09:30:35.307Z,10.10
2023-07-24T09:31:35.234Z,8.40
2023-07-24T09:32:35.405Z,7.10
2023-07-24T09:33:35.192Z,9.30
2023-07-24T09:34:35.192Z,7.80
2023-07-24T09:35:35.563Z,10.20
2023-07-24T09:36:35.166Z,7.60
2023-07-24T09:37:35.224Z,8.70
2023-07-24T09:38:35.154Z,7.20
2023-07-24T09:39:35.470Z,6.40
2023-07-24T09:40:35.121Z,8.10
2023-07-24T09:41:35.149Z,8.10
2023-07-24T09:42:35.162Z,7.40
2023-07-24T09:43:39.693Z,9.20
2023-07-24T09:44:35.105Z,6.80
2023-07-24T09:45:36.501Z,8.50
2023-07-24T09:46:46.186Z,8.00
2023-07-24T09:47:54.997Z,6.90
2023-07-24T09:49:35.087Z,8.30
2023-07-24T09:50:35.084Z,7.50
2023-07-24T09:51:35.005Z,8.20
2023-07-24T09:52:35.007Z,8.00
2023-07-24T09:53:34.995Z,7.20
2023-07-24T09:54:34.982Z,8.30
2023-07-24T09:55:35.027Z,7.00
2023-07-24T09:56:47.467Z,8.00
2023-07-24T09:57:34.952Z,7.90
2023-07-24T09:58:34.943Z,7.50
2023-07-24T09:59:34.948Z,7.80
2023-07-24T10:00:34.923Z,8.10
2023-07-24T10:01:35.279Z,6.60
2023-07-24T10:02:34.947Z,8.00
2023-07-24T10:03:34.889Z,7.70
2023-07-24T10:04:34.925Z,7.30
2023-07-24T10:05:34.870Z,7.50
2023-07-24T10:06:34.905Z,7.30
2023-07-24T10:07:34.864Z,7.80
2023-07-24T10:08:34.850Z,7.60
2023-07-24T10:09:34.840Z,7.30
2023-07-24T10:10:34.798Z,7.30
2023-07-24T10:11:35.108Z,6.90
2023-07-24T10:12:34.787Z,8.60
2023-07-24T10:13:34.780Z,6.50
2023-07-24T10:14:34.771Z,6.90
2023-07-24T10:15:34.792Z,6.90
2023-07-24T10:16:34.845Z,6.60
2023-07-24T10:17:34.807Z,5.80
2023-07-24T10:18:34.744Z,6.40
2023-07-24T10:19:34.759Z,6.90
2023-07-24T10:20:34.785Z,6.30
2023-07-24T10:21:35.047Z,6.90
2023-07-24T10:22:34.685Z,5.90
2023-07-24T10:23:34.723Z,6.30
2023-07-24T10:24:41.612Z,7.60
2023-07-24T10:25:34.656Z,6.50
2023-07-24T10:26:35.006Z,7.30
2023-07-24T10:27:34.644Z,7.20
2023-07-24T10:28:34.656Z,6.10
2023-07-24T10:29:34.612Z,6.60
2023-07-24T10:30:35.604Z,7.30
2023-07-24T10:31:35.062Z,7.90
2023-07-24T10:32:34.725Z,6.10
2023-07-24T10:33:34.770Z,7.30
2023-07-24T10:34:34.580Z,7.20
2023-07-24T10:35:34.537Z,6.30
2023-07-24T10:36:34.560Z,6.70
2023-07-24T10:37:34.528Z,7.80
2023-07-24T10:38:35.259Z,6.70
2023-07-24T10:39:34.520Z,7.30
2023-07-24T10:40:34.527Z,7.20
2023-07-24T10:41:34.478Z,8.30
2023-07-24T10:42:34.542Z,6.40
2023-07-24T10:43:34.453Z,7.30
2023-07-24T10:44:34.465Z,6.30
2023-07-24T10:45:34.448Z,6.70
2023-07-24T10:46:34.430Z,6.50
2023-07-24T10:47:34.468Z,7.50
2023-07-24T10:48:34.440Z,7.50
2023-07-24T10:49:34.390Z,7.20
2023-07-24T10:50:34.393Z,6.90
2023-07-24T10:51:34.504Z,8.20
2023-07-24T10:52:34.371Z,8.60
2023-07-24T10:53:34.354Z,9.50
2023-07-24T10:54:34.368Z,8.10
2023-07-24T10:55:34.347Z,9.10
2023-07-24T10:56:34.348Z,7.60
2023-07-24T10:57:34.327Z,9.40
2023-07-24T10:58:34.325Z,8.20
2023-07-24T10:59:34.319Z,8.50
2023-07-24T11:00:34.292Z,9.20
2023-07-24T11:01:34.952Z,9.40
2023-07-24T11:02:34.285Z,8.20
2023-07-24T11:03:34.245Z,9.00
2023-07-24T11:04:34.276Z,9.40
2023-07-24T11:05:34.222Z,9.50
2023-07-24T11:06:34.223Z,8.20
2023-07-24T11:07:34.255Z,7.90
2023-07-24T11:08:34.237Z,20.30
2023-07-24T11:09:34.191Z,17.70
2023-07-24T11:10:34.225Z,8.60
2023-07-24T11:11:34.814Z,9.60
2023-07-24T11:12:34.156Z,9.80
2023-07-24T11:13:34.160Z,9.90
2023-07-24T11:14:34.197Z,10.60
2023-07-24T11:15:34.240Z,10.30
2023-07-24T11:16:34.849Z,12.40
2023-07-24T11:17:34.190Z,8.90
2023-07-24T11:18:44.331Z,10.20
2023-07-24T11:19:34.169Z,11.40
2023-07-24T11:20:34.062Z,9.70
2023-07-24T11:21:34.358Z,10.20
2023-07-24T11:22:34.073Z,9.80
2023-07-24T11:23:34.073Z,8.60
2023-07-24T11:24:34.074Z,9.20
2023-07-24T11:25:34.064Z,8.60
2023-07-24T11:26:34.021Z,8.40
2023-07-24T11:27:34.009Z,10.40
2023-07-24T11:28:34.023Z,9.90
2023-07-24T11:29:34.013Z,9.60
2023-07-24T11:30:33.962Z,7.40
2023-07-24T11:31:34.347Z,8.50
2023-07-24T11:32:33.998Z,7.20
2023-07-24T11:33:33.943Z,8.80
2023-07-24T11:34:34.025Z,8.00
2023-07-24T11:35:33.902Z,8.10
2023-07-24T11:36:33.903Z,7.80
2023-07-24T11:37:33.899Z,7.10
2023-07-24T11:38:33.890Z,7.70
2023-07-24T11:39:33.868Z,6.50
2023-07-24T11:40:33.916Z,5.60
2023-07-24T11:41:34.286Z,7.20
2023-07-24T11:42:33.876Z,6.40
2023-07-24T11:43:33.831Z,5.90
2023-07-24T11:44:33.812Z,7.20
2023-07-24T11:45:33.851Z,7.60
2023-07-24T11:46:33.891Z,6.50
2023-07-24T11:47:33.841Z,6.10
2023-07-24T11:48:33.795Z,6.70
2023-07-24T11:49:33.764Z,7.00
2023-07-24T11:50:33.751Z,6.20
2023-07-24T11:51:34.068Z,7.20
2023-07-24T11:52:35.507Z,6.00
2023-07-24T11:53:33.726Z,7.10
2023-07-24T11:54:33.718Z,6.20
2023-07-24T11:55:33.733Z,6.00
2023-07-24T11:56:33.733Z,6.70
2023-07-24T11:57:33.704Z,5.90
2023-07-24T11:58:33.682Z,6.90
2023-07-24T11:59:33.663Z,6.40
2023-07-24T12:00:34.877Z,6.10
2023-07-24T12:01:34.087Z,5.80
2023-07-24T12:02:33.985Z,7.80
2023-07-24T12:03:33.765Z,6.30
2023-07-24T12:04:33.729Z,6.40
2023-07-24T12:05:33.680Z,6.10
2023-07-24T12:06:33.694Z,7.30
2023-07-24T12:07:33.668Z,6.20
2023-07-24T12:08:33.627Z,5.40
2023-07-24T12:09:33.657Z,6.40
2023-07-24T12:10:33.568Z,5.80
2023-07-24T12:11:33.562Z,7.10
2023-07-24T12:12:33.557Z,7.10
2023-07-24T12:13:33.589Z,5.40
2023-07-24T12:14:33.504Z,7.30
2023-07-24T12:15:33.504Z,5.70
2023-07-24T12:16:33.483Z,6.10
2023-07-24T12:17:33.516Z,5.60
2023-07-24T12:18:33.467Z,6.60
2023-07-24T12:19:33.493Z,6.30
2023-07-24T12:20:33.439Z,6.00
2023-07-24T12:21:33.875Z,5.50
2023-07-24T12:22:33.500Z,5.90
2023-07-24T12:23:33.413Z,6.20
2023-07-24T12:24:33.420Z,5.60
2023-07-24T12:25:33.421Z,5.40
2023-07-24T12:26:33.381Z,5.00
2023-07-24T12:27:33.350Z,6.40
2023-07-24T12:28:33.368Z,5.00
2023-07-24T12:29:33.337Z,6.10
2023-07-24T12:30:33.410Z,6.00
2023-07-24T12:31:33.591Z,5.70
2023-07-24T12:32:33.435Z,6.00
2023-07-24T12:33:33.301Z,5.90
2023-07-24T12:34:33.285Z,5.80
2023-07-24T12:35:33.288Z,6.00
2023-07-24T12:36:33.286Z,6.00
2023-07-24T12:37:33.261Z,5.00
2023-07-24T12:38:33.299Z,5.90
2023-07-24T12:39:33.242Z,6.40
2023-07-24T12:40:33.236Z,5.30
2023-07-24T12:41:33.549Z,5.10
2023-07-24T12:42:33.217Z,5.70
2023-07-24T12:43:33.205Z,5.10
2023-07-24T12:44:33.213Z,6.00
2023-07-24T12:45:33.173Z,5.20
2023-07-24T12:46:33.235Z,6.10
2023-07-24T12:47:33.192Z,4.80
2023-07-24T12:48:33.174Z,5.90
2023-07-24T12:49:33.130Z,5.10
2023-07-24T12:50:33.123Z,4.90
2023-07-24T12:51:33.429Z,5.40
2023-07-24T12:52:33.104Z,6.40
2023-07-24T12:53:38.599Z,5.20
2023-07-24T12:54:46.391Z,5.50
2023-07-24T12:55:33.075Z,5.90
2023-07-24T12:56:33.071Z,5.00
2023-07-24T12:57:33.058Z,6.20
2023-07-24T12:58:34.623Z,5.60
2023-07-24T12:59:33.016Z,6.00
2023-07-24T13:00:33.120Z,6.10
2023-07-24T13:01:33.260Z,5.30
2023-07-24T13:02:33.072Z,5.80
2023-07-24T13:03:33.098Z,4.70
2023-07-24T13:04:33.024Z,5.50
2023-07-24T13:05:32.958Z,4.70
2023-07-24T13:06:33.323Z,6.40
2023-07-24T13:07:32.927Z,6.00
2023-07-24T13:08:32.954Z,4.90
2023-07-24T13:09:32.944Z,5.30
2023-07-24T13:10:32.906Z,5.10
2023-07-24T13:11:33.243Z,5.10
2023-07-24T13:12:32.982Z,4.30
2023-07-24T13:13:32.871Z,4.60
2023-07-24T13:14:32.891Z,4.20
2023-07-24T13:15:32.856Z,5.10
2023-07-24T13:16:33.185Z,4.60
2023-07-24T13:17:32.838Z,4.70
2023-07-24T13:18:32.871Z,4.60